Falmouth, MA

3:37 PM EST on November 28, 2014 (GMT -0500)
Falmouth Village | Change Station
CLOSE
Current Station
Personal Weather Station
Location: Falmouth, MA
Elevation: 13 ft
Nearby Weather Stations

Elev 13 ft 41.55 °N, 70.61 °W | Updated 0 second ago

Clear
Clear
35.6 °F
Feels Like 36 °F
N
2.5
Wind Variable Wind from NNE
Gusts 8.5 mph

Today
High -- | Low -- °F
--% Chance of Precip.
Yesterday
High -- | Low -- °F
Precip. -- in
6:46 AM 4:14 PM
Waxing Crescent, 43% visible
Pressure 30.07 in
Visibility 10.0 miles
Clouds Clear
Windchill 36 °F
Dew Point 20 °F
Humidity 53%
Rainfall 0.05 in
Snow Depth Not available.
UV 0 out of 12
Pollen .10 out of 12
Air Quality Not available.
Flu Activity Not available.
METAR KFMH 282015Z 33007G13KT 10SM CLR 01/M06 A3007 RMK AO2

More Conditions Fewer Conditions

Pressure 30.07 in
Visibility 10.0 miles
Clouds Clear
Windchill 36 °F
Dew Point 20 °F
Humidity 53%
Rainfall 0.05 in
Snow Depth Not available.
UV 0 out of 12
Pollen .10 out of 12
Air Quality Not available.
Flu Activity Not available.
METAR KFMH 282015Z 33007G13KT 10SM CLR 01/M06 A3007 RMK AO2

More Conditions Fewer Conditions

10-Day Weather Forecast

Almanac

Astronomy

Nov. 28, 2014 Rise Set
Actual Time
Civil Twilight
Nautical Twilight
Astronomical Twilight
Moon
Length of Visible Light
Length of Day
Tomorrow will be .
, % of the Moon is Illuminated

Today's Extremes

State Highs State Lows

Community

WunderPhotos

Upload Photos

1,774,274 photos uploaded!

WunderBlogs® & News

Nearby

Air Quality

  Air Quality AQ Index Pollutant
Not available.

Snow Depth

Station Depth Elevation

Earthquake Activity

City Distance Mag. Time & Date
Minimum magnitude displayed is 2.5.

Coastal Water Temperatures

Place Temperature

Nearby Weather Stations